Time;durP1;ratioP1;P1;durP2;ratioP2;P2;SDS_P1;SDS_P2;PMS_P1;PMS_P2;Temp;Humidity;BMP_temperature;BMP_pressure;BME280_temperature;BME280_humidity;BME280_pressure;Samples;Min_cycle;Max_cycle;Signal;HPM_P1;HPM_P2
2021/10/19 00:02:00;;;;;;;5.40;2.90;;;;;;;25.76;35.07;97363.38;5081240;28;20261;-34
2021/10/19 00:04:25;;;;;;;4.97;3.08;;;;;;;25.75;35.10;97357.28;5081010;28;20027;-30
2021/10/19 00:06:51;;;;;;;5.85;3.10;;;;;;;25.76;35.07;97364.25;5080010;28;20047;-34
2021/10/19 00:09:16;;;;;;;5.05;2.83;;;;;;;25.75;34.98;97362.53;5082082;28;20027;-31
2021/10/19 00:11:42;;;;;;;5.68;3.20;;;;;;;25.75;35.16;97357.28;5083362;28;20063;-38
2021/10/19 00:14:07;;;;;;;4.88;2.88;;;;;;;25.76;35.20;97356.38;5082146;28;20024;-32
2021/10/19 00:16:32;;;;;;;12.13;3.90;;;;;;;25.75;34.97;97351.19;5080502;28;20356;-29
2021/10/19 00:18:58;;;;;;;4.68;3.10;;;;;;;25.75;34.71;97353.81;5079455;28;20062;-35
2021/10/19 00:21:23;;;;;;;4.05;2.90;;;;;;;25.74;34.93;97346.84;5082403;28;20024;-29
2021/10/19 00:23:49;;;;;;;5.38;3.10;;;;;;;25.74;34.94;97342.44;5084760;28;20663;-33
2021/10/19 00:26:14;;;;;;;4.30;2.63;;;;;;;25.73;34.89;97338.13;5082396;28;20040;-29
2021/10/19 00:28:39;;;;;;;4.65;2.67;;;;;;;25.74;35.15;97342.44;5085245;27;20019;-31
2021/10/19 00:31:05;;;;;;;4.18;2.60;;;;;;;25.73;35.05;97343.38;5074270;28;20031;-29
2021/10/19 00:33:30;;;;;;;5.20;2.83;;;;;;;25.73;35.17;97338.13;5077296;28;20028;-29
2021/10/19 00:35:55;;;;;;;4.30;2.70;;;;;;;25.73;35.01;97340.75;5074310;28;20671;-28
2021/10/19 00:38:21;;;;;;;6.38;3.00;;;;;;;25.74;35.03;97344.22;5076162;28;20028;-32
2021/10/19 00:40:46;;;;;;;4.15;2.72;;;;;;;25.74;34.97;97345.06;5083357;27;20449;-33
2021/10/19 00:43:12;;;;;;;6.32;2.88;;;;;;;25.73;35.18;97335.50;5077230;28;20024;-29
2021/10/19 00:45:38;;;;;;;5.85;2.83;;;;;;;25.73;35.06;97335.50;5081673;28;20038;-30
2021/10/19 00:48:05;;;;;;;3.78;2.35;;;;;;;25.73;35.02;97338.13;5076464;28;20038;-30
2021/10/19 00:50:31;;;;;;;4.97;2.65;;;;;;;25.74;35.00;97333.72;5084192;28;20027;-31
2021/10/19 00:52:57;;;;;;;3.00;2.42;;;;;;;25.73;35.01;97322.38;5083671;28;20028;-33
2021/10/19 00:55:22;;;;;;;5.05;2.55;;;;;;;25.71;34.97;97329.47;5083143;28;20136;-29
2021/10/19 00:57:47;;;;;;;5.05;2.58;;;;;;;25.73;35.15;97326.78;5079814;28;20110;-32
2021/10/19 01:00:13;;;;;;;4.93;2.60;;;;;;;25.74;35.11;97333.72;5060514;28;20375;-32
2021/10/19 01:02:43;;;;;;;4.72;2.95;;;;;;;25.72;34.93;97325.91;5070545;28;20031;-31
2021/10/19 01:05:08;;;;;;;4.75;2.70;;;;;;;25.72;34.92;97314.56;5077015;28;20032;-29
2021/10/19 01:07:34;;;;;;;4.18;2.72;;;;;;;25.73;34.98;97317.13;5073901;28;20618;-30
2021/10/19 01:10:03;;;;;;;4.07;2.50;;;;;;;25.73;35.02;97314.50;5056879;28;20059;-34
2021/10/19 01:12:29;;;;;;;2.92;2.20;;;;;;;25.72;34.98;97304.91;5077817;28;20028;-31
2021/10/19 01:14:54;;;;;;;9.25;3.15;;;;;;;25.72;34.87;97306.69;5075367;28;20039;-33
2021/10/19 01:17:20;;;;;;;3.63;2.50;;;;;;;25.70;34.66;97296.25;5079715;28;20035;-30
2021/10/19 01:19:48;;;;;;;4.03;2.63;;;;;;;25.70;34.83;97293.63;5081267;28;20538;-31
2021/10/19 01:22:13;;;;;;;4.35;2.50;;;;;;;25.69;34.92;97291.94;5079443;28;20111;-30
2021/10/19 01:24:40;;;;;;;5.22;2.88;;;;;;;25.68;34.93;97298.09;5079705;28;20093;-34
2021/10/19 01:27:05;;;;;;;4.25;2.55;;;;;;;25.69;35.01;97305.06;5073966;28;20032;-32
2021/10/19 01:29:30;;;;;;;4.05;2.55;;;;;;;25.68;35.03;97308.59;5074605;27;20031;-31
2021/10/19 01:31:56;;;;;;;3.97;2.60;;;;;;;25.68;34.93;97306.84;5080281;28;20028;-30
2021/10/19 01:34:21;;;;;;;4.05;2.38;;;;;;;25.69;34.97;97312.94;5080642;28;20757;-31
2021/10/19 01:36:47;;;;;;;4.95;2.75;;;;;;;25.68;34.99;97311.22;5078219;28;20024;-30
2021/10/19 01:39:13;;;;;;;4.15;2.47;;;;;;;25.69;34.90;97315.56;5081292;28;20089;-29
2021/10/19 01:41:38;;;;;;;3.45;2.50;;;;;;;25.70;35.04;97317.25;5082565;28;20050;-29
2021/10/19 01:44:04;;;;;;;4.22;2.55;;;;;;;25.69;34.90;97312.94;5082159;28;20031;-31
2021/10/19 01:46:29;;;;;;;3.90;2.33;;;;;;;25.69;34.97;97315.56;5079559;28;20108;-31
2021/10/19 01:48:56;;;;;;;4.60;2.50;;;;;;;25.69;35.04;97308.53;5058730;28;20605;-30
2021/10/19 01:51:22;;;;;;;3.83;2.42;;;;;;;25.68;35.05;97300.72;5078900;28;20092;-31
2021/10/19 01:53:48;;;;;;;2.97;2.17;;;;;;;25.68;35.07;97301.59;5079551;28;20032;-27
2021/10/19 01:56:13;;;;;;;4.80;2.38;;;;;;;25.69;35.06;97305.06;5085679;28;20027;-29
2021/10/19 01:58:38;;;;;;;3.03;2.13;;;;;;;25.68;35.20;97292.84;5080960;28;20032;-31
2021/10/19 02:01:04;;;;;;;4.45;2.60;;;;;;;25.68;34.93;97303.34;5084347;28;20032;-32
2021/10/19 02:03:29;;;;;;;3.00;2.13;;;;;;;25.68;35.07;97298.09;5085438;28;20023;-30
2021/10/19 02:05:54;;;;;;;2.95;2.33;;;;;;;25.69;35.10;97307.69;5085446;28;20505;-30
2021/10/19 02:08:20;;;;;;;3.47;2.30;;;;;;;25.69;35.07;97299.81;5079616;28;20036;-32
2021/10/19 02:10:45;;;;;;;3.75;2.28;;;;;;;25.69;35.02;97310.31;5084069;28;20028;-32
2021/10/19 02:13:11;;;;;;;2.65;2.13;;;;;;;25.68;35.08;97303.34;5084574;28;20034;-32
2021/10/19 02:15:36;;;;;;;3.78;2.13;;;;;;;25.67;34.94;97291.16;5084036;28;20130;-34
2021/10/19 02:18:05;;;;;;;5.75;2.47;;;;;;;25.67;34.99;97302.50;5078719;28;20055;-32
2021/10/19 02:20:31;;;;;;;4.88;2.65;;;;;;;25.68;34.97;97298.09;5080969;28;20024;-33
2021/10/19 02:22:56;;;;;;;3.50;2.20;;;;;;;25.67;35.00;97297.25;5082968;28;20383;-29
2021/10/19 02:25:22;;;;;;;3.35;2.20;;;;;;;25.68;35.06;97298.97;5082805;28;20039;-33
2021/10/19 02:27:47;;;;;;;3.05;2.17;;;;;;;25.68;34.95;97298.97;5082273;28;20552;-31
2021/10/19 02:30:13;;;;;;;3.15;2.17;;;;;;;25.67;34.95;97294.63;5083573;28;20039;-33
2021/10/19 02:32:39;;;;;;;3.17;2.15;;;;;;;25.67;35.04;97292.00;5083531;28;20023;-32
2021/10/19 02:35:08;;;;;;;3.33;2.00;;;;;;;25.67;35.10;97285.91;5083362;28;20056;-35
2021/10/19 02:37:34;;;;;;;3.10;2.00;;;;;;;25.67;35.11;97285.91;5083504;28;20552;-33
2021/10/19 02:39:59;;;;;;;3.25;2.10;;;;;;;25.69;35.05;97289.31;5077737;28;20035;-29
2021/10/19 02:42:24;;;;;;;2.47;2.00;;;;;;;25.68;35.21;97284.97;5076492;28;20035;-29
2021/10/19 02:44:50;;;;;;;3.60;1.95;;;;;;;25.67;35.07;97291.16;5073382;28;20306;-32
2021/10/19 02:47:15;;;;;;;2.90;2.03;;;;;;;25.67;35.22;97294.63;5070086;28;20023;-31
2021/10/19 02:49:41;;;;;;;2.45;1.90;;;;;;;25.67;34.92;97276.25;5073499;28;20034;-35
2021/10/19 02:52:07;;;;;;;3.83;2.20;;;;;;;25.68;35.07;97282.34;5083752;28;20031;-30
2021/10/19 02:54:34;;;;;;;2.15;1.83;;;;;;;25.67;35.00;97271.00;5082402;28;20669;-33
2021/10/19 02:56:59;;;;;;;3.22;2.17;;;;;;;25.67;35.11;97264.91;5078509;28;20178;-31
2021/10/19 02:59:25;;;;;;;2.67;2.00;;;;;;;25.67;35.00;97271.00;5081076;28;20800;-28
2021/10/19 03:01:50;;;;;;;5.05;2.00;;;;;;;25.64;35.02;97259.78;5082207;28;20031;-32
2021/10/19 03:04:15;;;;;;;2.58;2.10;;;;;;;25.67;35.11;97264.91;5083244;28;20053;-29
2021/10/19 03:06:41;;;;;;;6.50;2.13;;;;;;;25.67;35.08;97265.75;5078399;28;20020;-31
2021/10/19 03:09:06;;;;;;;2.85;1.70;;;;;;;25.67;35.09;97278.03;5081077;28;20413;-33
2021/10/19 03:11:32;;;;;;;3.90;2.30;;;;;;;25.68;35.10;97277.09;5077479;28;20024;-33
2021/10/19 03:13:57;;;;;;;2.60;1.63;;;;;;;25.67;35.00;97285.91;5081811;28;20035;-30
2021/10/19 03:16:22;;;;;;;2.88;2.10;;;;;;;25.67;35.06;97280.66;5086844;28;20057;-30
2021/10/19 03:18:49;;;;;;;3.20;1.70;;;;;;;25.68;35.13;97292.84;5077991;28;20520;-32
2021/10/19 03:21:15;;;;;;;3.58;1.92;;;;;;;25.67;35.14;97280.66;5079289;28;20027;-30
2021/10/19 03:23:40;;;;;;;2.92;1.70;;;;;;;25.66;35.04;97281.59;5085709;28;20031;-30
2021/10/19 03:26:05;;;;;;;3.15;1.90;;;;;;;25.67;34.96;97284.13;5082448;27;20990;-31
2021/10/19 03:28:31;;;;;;;2.92;2.00;;;;;;;25.67;35.18;97281.50;5082291;27;20089;-31
2021/10/19 03:30:56;;;;;;;3.10;2.10;;;;;;;25.66;35.07;97285.03;5070319;28;20137;-35
2021/10/19 03:33:21;;;;;;;2.63;1.80;;;;;;;25.66;35.07;97284.22;5082176;28;20024;-28
2021/10/19 03:35:47;;;;;;;3.35;1.83;;;;;;;25.67;35.06;97291.16;5080660;28;20032;-32
2021/10/19 03:38:12;;;;;;;3.90;2.00;;;;;;;25.65;35.11;97277.22;5076996;28;20031;-35
2021/10/19 03:40:38;;;;;;;2.38;1.70;;;;;;;25.66;35.19;97279.78;5086941;28;20580;-30
2021/10/19 03:43:05;;;;;;;2.55;1.60;;;;;;;25.66;35.16;97285.03;5081988;28;20053;-29
2021/10/19 03:45:30;;;;;;;2.58;1.52;;;;;;;25.65;35.09;97291.22;5079054;28;20621;-30
2021/10/19 03:47:56;;;;;;;1.90;1.65;;;;;;;25.65;35.13;97292.97;5083974;28;20063;-28
2021/10/19 03:50:21;;;;;;;5.10;1.60;;;;;;;25.65;35.15;97292.97;5082398;27;20028;-29
2021/10/19 03:52:47;;;;;;;3.17;1.50;;;;;;;25.65;35.01;97298.22;5082302;28;20383;-32
2021/10/19 03:55:12;;;;;;;3.88;1.90;;;;;;;25.66;35.09;97303.41;5085605;28;20028;-32
2021/10/19 03:57:39;;;;;;;2.40;1.55;;;;;;;25.65;35.22;97300.84;5086985;28;20034;-32
2021/10/19 04:00:06;;;;;;;2.35;1.60;;;;;;;25.67;35.03;97304.28;5084137;28;20032;-30
2021/10/19 04:02:31;;;;;;;2.97;1.58;;;;;;;25.67;35.19;97299.88;5083385;28;20034;-30
2021/10/19 04:04:56;;;;;;;2.22;1.45;;;;;;;25.67;35.02;97306.91;5081961;28;20024;-32
2021/10/19 04:07:22;;;;;;;2.55;1.90;;;;;;;25.67;35.15;97301.66;5082364;28;20036;-30
2021/10/19 04:09:47;;;;;;;2.17;1.67;;;;;;;25.67;35.24;97305.13;5079796;27;20024;-30
2021/10/19 04:12:13;;;;;;;2.15;1.58;;;;;;;25.67;35.04;97299.03;5082107;28;20042;-32
2021/10/19 04:14:38;;;;;;;2.30;1.48;;;;;;;25.67;35.19;97299.03;5084452;28;20084;-29
2021/10/19 04:17:03;;;;;;;2.58;1.67;;;;;;;25.67;35.06;97296.41;5080084;28;20042;-29
2021/10/19 04:19:29;;;;;;;1.45;1.35;;;;;;;25.67;35.13;97296.41;5081026;27;20035;-30
2021/10/19 04:21:54;;;;;;;2.70;1.80;;;;;;;25.65;35.00;97285.09;5081695;28;20096;-30
2021/10/19 04:24:20;;;;;;;1.88;1.50;;;;;;;25.67;35.20;97297.25;5081460;28;20023;-35
2021/10/19 04:26:45;;;;;;;2.25;1.73;;;;;;;25.66;35.13;97298.16;5083073;28;20040;-31
2021/10/19 04:29:11;;;;;;;1.85;1.50;;;;;;;25.67;35.07;97296.41;5087769;28;20039;-28
2021/10/19 04:31:39;;;;;;;1.80;1.40;;;;;;;25.63;34.95;97287.78;5082864;28;20023;-29
2021/10/19 04:34:05;;;;;;;2.05;1.30;;;;;;;25.67;34.99;97296.41;5085097;28;20118;-29
2021/10/19 04:36:30;;;;;;;1.60;1.50;;;;;;;25.65;35.02;97292.97;5079279;28;20024;-28
2021/10/19 04:38:56;;;;;;;2.13;1.40;;;;;;;25.65;34.83;97309.59;5078209;28;20023;-31
2021/10/19 04:41:21;;;;;;;2.08;1.50;;;;;;;25.65;35.17;97306.09;5073663;28;20042;-29
2021/10/19 04:43:47;;;;;;;2.22;1.42;;;;;;;25.65;35.25;97303.47;5071471;28;20085;-32
2021/10/19 04:46:12;;;;;;;1.88;1.60;;;;;;;25.65;35.04;97304.34;5070379;28;20519;-30
2021/10/19 04:48:37;;;;;;;2.72;1.42;;;;;;;25.67;35.20;97296.41;5069811;27;20023;-32
2021/10/19 04:51:03;;;;;;;3.28;1.60;;;;;;;25.65;35.00;97298.22;5056061;28;20031;-31
2021/10/19 04:53:28;;;;;;;2.83;1.55;;;;;;;25.65;35.15;97303.47;5072635;28;20023;-34
2021/10/19 04:55:54;;;;;;;3.08;1.48;;;;;;;25.65;35.06;97296.47;5073261;28;20510;-25
2021/10/19 04:58:19;;;;;;;2.45;1.48;;;;;;;25.65;35.21;97295.59;5068342;28;20027;-29
2021/10/19 05:00:47;;;;;;;2.45;1.58;;;;;;;25.65;34.99;97298.22;5070175;28;20796;-29
2021/10/19 05:03:15;;;;;;;2.15;1.42;;;;;;;25.65;35.20;97292.97;5069854;28;20030;-31
2021/10/19 05:05:40;;;;;;;2.38;1.58;;;;;;;25.64;35.05;97302.66;5075592;28;20074;-32
2021/10/19 05:08:06;;;;;;;2.05;1.67;;;;;;;25.65;35.18;97303.47;5077567;27;20115;-32
2021/10/19 05:10:31;;;;;;;2.95;1.40;;;;;;;25.64;35.31;97302.66;5073229;28;20603;-28
2021/10/19 05:12:56;;;;;;;1.35;1.10;;;;;;;25.64;35.23;97312.28;5076604;28;20027;-31
2021/10/19 05:15:22;;;;;;;3.00;1.40;;;;;;;25.64;35.20;97312.28;5077663;28;20522;-29
2021/10/19 05:17:48;;;;;;;1.80;1.35;;;;;;;25.65;35.08;97324.47;5079082;27;20028;-30
2021/10/19 05:20:13;;;;;;;1.52;1.30;;;;;;;25.64;35.11;97318.41;5076748;28;20029;-29
2021/10/19 05:22:39;;;;;;;2.58;1.50;;;;;;;25.64;35.17;97322.78;5082253;27;20437;-31
2021/10/19 05:25:04;;;;;;;2.05;1.30;;;;;;;25.64;35.26;97313.16;5074066;28;20036;-32
2021/10/19 05:27:30;;;;;;;2.20;1.60;;;;;;;25.64;35.18;97307.03;5079130;28;20035;-32
2021/10/19 05:29:55;;;;;;;1.80;1.33;;;;;;;25.64;35.16;97301.78;5077585;28;20118;-30
2021/10/19 05:32:20;;;;;;;2.00;1.50;;;;;;;25.63;34.99;97305.34;5069504;28;20826;-29
2021/10/19 05:34:46;;;;;;;1.83;1.30;;;;;;;25.64;35.28;97302.66;5072501;28;20043;-30
2021/10/19 05:37:11;;;;;;;1.60;1.30;;;;;;;25.64;35.17;97293.91;5068688;28;20043;-28
2021/10/19 05:39:37;;;;;;;3.22;2.15;;;;;;;25.63;35.29;97290.41;5072901;28;20031;-31
2021/10/19 05:42:04;;;;;;;4.25;2.03;;;;;;;25.63;34.94;97289.59;5071298;28;20028;-31
2021/10/19 05:44:29;;;;;;;2.25;1.80;;;;;;;25.62;35.08;97291.34;5066269;28;20894;-31
2021/10/19 05:46:54;;;;;;;2.25;1.42;;;;;;;25.61;35.09;97292.28;5069032;28;20464;-28
2021/10/19 05:49:20;;;;;;;2.90;1.60;;;;;;;25.61;35.34;97284.41;5068993;28;20773;-31
2021/10/19 05:51:46;;;;;;;1.48;1.25;;;;;;;25.61;35.32;97286.16;5076589;28;20479;-30
2021/10/19 05:54:16;;;;;;;2.25;1.55;;;;;;;25.60;35.26;97284.47;5076675;28;20099;-31
2021/10/19 05:56:42;;;;;;;3.05;1.50;;;;;;;25.61;35.07;97281.78;5078897;28;20270;-29
2021/10/19 05:59:07;;;;;;;2.25;1.17;;;;;;;25.60;35.16;97287.97;5078388;28;20088;-29
2021/10/19 06:01:32;;;;;;;1.63;1.30;;;;;;;25.62;35.19;97293.13;5079027;28;20498;-30
2021/10/19 06:03:58;;;;;;;2.00;1.40;;;;;;;25.62;35.23;97290.50;5081323;28;20042;-31
2021/10/19 06:06:23;;;;;;;1.30;1.17;;;;;;;25.61;35.28;97294.03;5083175;28;20050;-30
2021/10/19 06:08:51;;;;;;;1.75;1.40;;;;;;;25.62;35.15;97293.13;5082922;28;20488;-31
2021/10/19 06:11:18;;;;;;;1.65;1.42;;;;;;;25.61;35.31;97296.66;5075700;28;20028;-31
2021/10/19 06:13:43;;;;;;;2.97;1.42;;;;;;;25.60;35.35;97298.44;5077837;28;20031;-30
2021/10/19 06:16:09;;;;;;;2.83;1.40;;;;;;;25.60;35.17;97311.56;5080280;28;20148;-31
2021/10/19 06:18:34;;;;;;;1.63;1.45;;;;;;;25.61;35.36;97317.66;5081013;28;20031;-33
2021/10/19 06:21:00;;;;;;;1.92;1.30;;;;;;;25.60;35.36;97321.22;5078791;28;20118;-30
2021/10/19 06:23:25;;;;;;;1.65;1.20;;;;;;;25.60;35.24;97318.59;5080023;28;20036;-29
2021/10/19 06:25:50;;;;;;;2.70;1.10;;;;;;;25.59;35.33;97314.25;5081394;28;20284;-31
2021/10/19 06:28:16;;;;;;;1.42;1.23;;;;;;;25.60;35.15;97321.22;5082453;28;20038;-29
2021/10/19 06:30:41;;;;;;;1.45;1.33;;;;;;;25.60;35.28;97316.81;5078479;28;20032;-32
2021/10/19 06:33:07;;;;;;;2.13;1.13;;;;;;;25.60;35.27;97310.72;5087667;28;20106;-29
2021/10/19 06:35:32;;;;;;;12.20;2.25;;;;;;;25.60;35.21;97308.09;5084243;28;20024;-31
2021/10/19 06:37:57;;;;;;;7.95;2.17;;;;;;;25.59;35.24;97314.25;5080537;28;20371;-29
2021/10/19 06:40:23;;;;;;;5.82;2.17;;;;;;;25.58;35.21;97313.41;5073981;28;20020;-31
2021/10/19 06:42:48;;;;;;;6.15;2.38;;;;;;;25.59;35.21;97309.00;5079849;28;20027;-34
2021/10/19 06:45:14;;;;;;;5.68;2.50;;;;;;;25.59;35.18;97311.63;5057873;28;20035;-29
2021/10/19 06:47:39;;;;;;;6.50;2.40;;;;;;;25.58;35.18;97302.91;5080100;28;20016;-29
2021/10/19 06:50:06;;;;;;;9.65;2.90;;;;;;;25.59;35.18;97324.75;5046502;28;20118;-33
2021/10/19 06:52:32;;;;;;;30.08;3.83;;;;;;;25.57;35.22;97327.44;5078839;28;20502;-32
2021/10/19 06:54:58;;;;;;;10.80;3.38;;;;;;;25.56;34.93;97325.75;5071557;27;20035;-33
2021/10/19 06:57:23;;;;;;;11.80;3.60;;;;;;;25.55;34.84;97330.09;5080102;27;20769;-32
2021/10/19 06:59:49;;;;;;;17.02;3.47;;;;;;;25.55;34.93;97326.66;5079748;28;20036;-32
2021/10/19 07:02:14;;;;;;;8.23;3.47;;;;;;;25.54;34.74;97333.66;5081745;28;20042;-32
2021/10/19 07:04:40;;;;;;;7.13;3.33;;;;;;;25.53;34.81;97325.84;5067498;27;20032;-33
2021/10/19 07:07:05;;;;;;;10.05;3.20;;;;;;;25.49;34.99;97327.75;5077746;28;20836;-31
2021/10/19 07:09:30;;;;;;;10.25;3.38;;;;;;;25.53;35.00;97333.72;5074784;28;20032;-32
2021/10/19 07:11:57;;;;;;;11.43;3.42;;;;;;;25.53;34.85;97337.19;5074475;28;20039;-31
2021/10/19 07:14:23;;;;;;;8.35;3.13;;;;;;;25.52;35.03;97335.47;5071986;28;20023;-30
2021/10/19 07:16:48;;;;;;;11.85;3.30;;;;;;;25.53;34.71;97328.47;5077140;28;20031;-29
2021/10/19 07:19:14;;;;;;;10.07;3.15;;;;;;;25.52;34.75;97339.88;5077462;28;20035;-33
2021/10/19 07:21:39;;;;;;;8.45;3.45;;;;;;;25.50;34.51;97337.31;5078606;28;20104;-32
2021/10/19 07:24:05;;;;;;;8.07;3.05;;;;;;;25.51;34.46;97344.28;5075215;28;20043;-30
2021/10/19 07:26:30;;;;;;;10.10;3.25;;;;;;;25.51;34.50;97352.16;5070786;28;20024;-28
2021/10/19 07:28:56;;;;;;;7.07;2.95;;;;;;;25.51;34.42;97357.41;5073653;28;20044;-29
2021/10/19 07:31:21;;;;;;;8.75;2.80;;;;;;;25.50;34.54;97353.06;5072270;28;20053;-29
2021/10/19 07:33:47;;;;;;;9.82;2.70;;;;;;;25.49;34.67;97354.00;5073028;28;20583;-27
2021/10/19 07:36:12;;;;;;;6.82;2.97;;;;;;;25.51;34.54;97353.94;5078017;28;20050;-31
2021/10/19 07:38:37;;;;;;;4.78;2.70;;;;;;;25.51;34.79;97359.19;5075063;28;20027;-32
2021/10/19 07:41:03;;;;;;;7.57;2.92;;;;;;;25.50;34.86;97347.81;5075149;28;20379;-31
2021/10/19 07:43:28;;;;;;;9.88;2.38;;;;;;;25.51;34.83;97349.53;5076244;27;20032;-32
2021/10/19 07:45:54;;;;;;;8.00;2.85;;;;;;;25.51;34.76;97357.41;5077590;28;20034;-27
2021/10/19 07:48:19;;;;;;;7.68;2.67;;;;;;;25.50;34.75;97355.69;5079002;28;20466;-30
2021/10/19 07:50:47;;;;;;;6.70;2.70;;;;;;;25.48;34.87;97359.31;5080799;28;20040;-27
2021/10/19 07:53:13;;;;;;;5.25;2.50;;;;;;;25.50;34.93;97363.56;5086699;28;20027;-32
2021/10/19 07:55:38;;;;;;;7.47;2.97;;;;;;;25.52;34.79;97360.88;5082634;28;20082;-33
2021/10/19 07:58:04;;;;;;;7.68;2.95;;;;;;;25.50;34.78;97358.31;5080413;28;20020;-30
2021/10/19 08:00:29;;;;;;;7.45;2.70;;;;;;;25.51;34.86;97365.25;5085360;28;20135;-32
2021/10/19 08:02:55;;;;;;;5.75;2.53;;;;;;;25.51;34.75;97354.78;5080346;28;20063;-28
2021/10/19 08:05:20;;;;;;;5.93;2.65;;;;;;;25.52;34.85;97360.88;5087641;28;20028;-29
2021/10/19 08:07:47;;;;;;;4.55;2.40;;;;;;;25.52;34.70;97360.88;5081548;28;20023;-32
2021/10/19 08:10:15;;;;;;;6.70;2.63;;;;;;;25.51;34.72;97370.50;5083188;28;20054;-30
2021/10/19 08:12:40;;;;;;;6.20;2.25;;;;;;;25.51;34.61;97365.25;5085393;28;20035;-34
2021/10/19 08:15:06;;;;;;;6.38;2.65;;;;;;;25.50;34.16;97360.94;5081855;28;20108;-33
2021/10/19 08:17:31;;;;;;;9.07;3.40;;;;;;;25.47;33.02;97382.06;5083457;28;20027;-32
2021/10/19 08:20:00;;;;;;;6.20;3.38;;;;;;;25.37;31.56;97378.13;5082390;28;20038;-32
2021/10/19 08:22:29;;;;;;;12.43;4.28;;;;;;;25.24;31.01;97369.94;5083421;28;20498;-30
2021/10/19 08:24:55;;;;;;;7.53;3.38;;;;;;;25.07;30.68;97371.47;5080518;28;20038;-27
2021/10/19 08:27:22;;;;;;;9.13;3.72;;;;;;;24.93;30.48;97385.13;5082522;28;20632;-33
2021/10/19 08:29:47;;;;;;;7.25;3.92;;;;;;;24.82;31.19;97376.84;5080598;28;20039;-32
2021/10/19 08:32:13;;;;;;;8.82;3.28;;;;;;;24.76;31.44;97378.78;5079247;28;20039;-36
2021/10/19 08:34:38;;;;;;;10.15;3.80;;;;;;;24.73;31.68;97386.75;5082541;28;20050;-32
2021/10/19 08:37:03;;;;;;;6.40;3.75;;;;;;;24.72;31.97;97381.56;5078784;27;20035;-32
2021/10/19 08:39:29;;;;;;;9.80;3.55;;;;;;;24.72;32.21;97387.69;5074811;28;20077;-29
2021/10/19 08:41:54;;;;;;;7.07;4.25;;;;;;;24.72;32.66;97374.56;5077900;28;21875;-30
2021/10/19 08:44:20;;;;;;;12.63;3.95;;;;;;;24.76;32.78;97383.16;5055375;28;21126;-29
2021/10/19 08:46:45;;;;;;;6.60;3.75;;;;;;;24.77;32.82;97390.09;5070355;28;20047;-32
2021/10/19 08:49:11;;;;;;;5.82;3.58;;;;;;;24.81;33.04;97381.19;5058785;28;20037;-29
2021/10/19 08:51:39;;;;;;;10.10;4.38;;;;;;;24.83;33.20;97386.41;5078102;28;20030;-32
2021/10/19 08:54:06;;;;;;;6.07;3.70;;;;;;;24.85;33.30;97393.31;5078009;28;20035;-33
2021/10/19 08:56:32;;;;;;;9.15;4.18;;;;;;;24.88;33.20;97387.09;5071751;27;20051;-31
2021/10/19 08:58:58;;;;;;;9.30;3.67;;;;;;;24.90;33.45;97385.28;5084001;28;20495;-32
2021/10/19 09:01:37;;;;;;;13.45;4.20;;;;;;;24.92;33.30;97378.19;5081820;28;20019;-31
2021/10/19 09:04:10;;;;;;;10.07;4.00;;;;;;;24.95;33.51;97387.69;5079785;27;20027;-32
2021/10/19 09:06:37;;;;;;;6.85;4.13;;;;;;;24.96;33.57;97379.78;5081014;28;20358;-32
2021/10/19 09:09:04;;;;;;;9.10;3.35;;;;;;;24.97;33.78;97381.47;5047972;27;20138;-28
2021/10/19 09:11:39;;;;;;;5.72;3.47;;;;;;;24.98;34.11;97385.78;5070763;28;20024;-28
2021/10/19 09:14:05;;;;;;;7.03;3.30;;;;;;;25.01;34.03;97385.69;5077973;28;20086;-28
2021/10/19 09:16:49;;;;;;;9.15;3.97;;;;;;;25.04;34.27;97371.59;5066235;28;20024;-28
2021/10/19 09:19:20;;;;;;;15.02;4.32;;;;;;;25.09;34.06;97368.78;5078274;28;20750;-31
2021/10/19 09:21:52;;;;;;;6.10;3.75;;;;;;;25.15;34.29;97379.03;5073661;28;21681;-32
2021/10/19 09:24:25;;;;;;;7.55;4.15;;;;;;;25.23;34.00;97360.34;5076521;28;20151;-30
2021/10/19 09:26:50;;;;;;;6.03;3.72;;;;;;;25.34;33.94;97354.63;5076481;28;20038;-29
2021/10/19 09:29:16;;;;;;;10.82;3.70;;;;;;;25.44;33.77;97348.94;5079188;28;20027;-34
2021/10/19 09:31:41;;;;;;;12.45;4.03;;;;;;;25.55;33.70;97351.09;5079086;28;20508;-30
2021/10/19 09:34:11;;;;;;;9.98;3.67;;;;;;;25.67;33.49;97349.72;5079021;28;20065;-31
2021/10/19 09:36:36;;;;;;;14.45;3.53;;;;;;;25.79;33.53;97348.38;5081498;28;20043;-29
2021/10/19 09:39:02;;;;;;;8.90;3.65;;;;;;;25.90;33.29;97354.91;5086345;28;20031;-31
2021/10/19 09:41:27;;;;;;;9.25;4.07;;;;;;;26.00;32.98;97356.19;5080108;28;20028;-35
2021/10/19 09:43:53;;;;;;;8.93;3.67;;;;;;;26.10;33.12;97348.75;5079138;28;20043;-30
2021/10/19 09:46:23;;;;;;;10.68;3.40;;;;;;;26.17;32.87;97334.44;5037587;28;20807;-31
2021/10/19 09:48:48;;;;;;;5.50;3.40;;;;;;;26.26;32.13;97346.28;5061447;28;20028;-29
2021/10/19 09:51:14;;;;;;;9.15;3.78;;;;;;;26.34;32.54;97345.94;5068691;28;20039;-29
2021/10/19 09:53:39;;;;;;;10.30;3.55;;;;;;;26.41;32.61;97350.00;5049929;28;20036;-29
2021/10/19 09:56:05;;;;;;;8.43;3.58;;;;;;;26.50;32.58;97353.94;5059029;28;20060;-32
2021/10/19 09:58:30;;;;;;;7.57;3.50;;;;;;;26.58;32.47;97356.25;5073274;28;20028;-31
2021/10/19 10:00:55;;;;;;;8.10;3.40;;;;;;;26.66;32.34;97356.69;5052855;28;20795;-31
2021/10/19 10:03:21;;;;;;;7.43;3.80;;;;;;;26.73;32.03;97350.22;5058023;28;20031;-30
2021/10/19 10:05:47;;;;;;;6.68;3.60;;;;;;;26.80;32.17;97342.91;5058123;28;20029;-30
2021/10/19 10:08:20;;;;;;;10.18;3.90;;;;;;;26.87;32.04;97340.81;5055468;28;20024;-32
2021/10/19 10:10:50;;;;;;;10.18;3.03;;;;;;;26.93;31.82;97339.66;5056275;28;20312;-26
2021/10/19 10:13:16;;;;;;;6.37;3.40;;;;;;;26.97;31.83;97341.25;5042776;28;20039;-29
2021/10/19 10:15:41;;;;;;;15.10;3.72;;;;;;;27.02;31.82;97333.13;5058499;28;20024;-29
2021/10/19 10:18:09;;;;;;;5.10;2.90;;;;;;;27.06;31.90;97327.66;5058981;28;20422;-32
2021/10/19 10:20:36;;;;;;;5.43;3.40;;;;;;;27.08;31.92;97323.16;5062286;28;20024;-28
2021/10/19 10:23:13;;;;;;;4.97;3.45;;;;;;;27.11;31.79;97323.00;5057476;28;20514;-32
2021/10/19 10:25:39;;;;;;;6.97;3.30;;;;;;;27.13;31.79;97315.91;5055304;28;20032;-29
2021/10/19 10:28:23;;;;;;;5.88;3.10;;;;;;;27.16;31.80;97316.66;5062439;28;20883;-31
2021/10/19 10:30:48;;;;;;;7.40;3.42;;;;;;;27.18;31.84;97320.03;5058327;28;20025;-31
2021/10/19 10:33:14;;;;;;;6.30;3.33;;;;;;;27.19;31.63;97316.50;5059813;28;20256;-27
2021/10/19 10:35:46;;;;;;;5.05;2.75;;;;;;;27.20;31.79;97328.72;5060755;28;20035;-31
2021/10/19 10:38:12;;;;;;;6.47;3.30;;;;;;;27.21;31.80;97327.78;5060067;28;20455;-31
2021/10/19 10:40:39;;;;;;;6.60;2.90;;;;;;;27.21;31.63;97323.41;5065508;28;21098;-29
2021/10/19 10:43:26;;;;;;;5.32;2.80;;;;;;;27.25;31.74;97324.09;5068513;28;20024;-32
2021/10/19 10:46:06;;;;;;;7.95;3.17;;;;;;;27.29;31.95;97325.63;5059074;28;20036;-30
2021/10/19 10:48:32;;;;;;;6.30;3.08;;;;;;;27.33;31.80;97311.38;5062873;28;20479;-33
2021/10/19 10:50:58;;;;;;;4.82;3.08;;;;;;;27.38;31.79;97314.63;5065624;28;20028;-29
2021/10/19 10:53:37;;;;;;;7.15;2.75;;;;;;;27.43;31.85;97308.28;5064828;28;20497;-31
2021/10/19 10:56:03;;;;;;;7.65;2.90;;;;;;;27.45;31.72;97314.31;5065446;28;20434;-32
2021/10/19 10:58:32;;;;;;;4.40;2.63;;;;;;;27.48;31.62;97303.63;5063945;28;20024;-32
2021/10/19 11:01:16;;;;;;;6.22;3.00;;;;;;;27.50;31.96;97307.03;5079451;28;20021;-30
2021/10/19 11:03:43;;;;;;;6.85;2.80;;;;;;;27.53;31.69;97306.84;5066347;28;20474;-29
2021/10/19 11:06:11;;;;;;;5.50;2.60;;;;;;;27.55;31.69;97299.75;5061552;28;20085;-27
2021/10/19 11:08:36;;;;;;;5.55;2.67;;;;;;;27.57;31.71;97303.13;5079008;28;20671;-31
2021/10/19 11:11:10;;;;;;;6.72;2.75;;;;;;;27.57;31.77;97303.13;5065120;28;20039;-35
2021/10/19 11:13:58;;;;;;;6.00;3.00;;;;;;;27.59;31.65;97301.28;5065549;28;20044;-32
2021/10/19 11:16:43;;;;;;;6.03;3.00;;;;;;;27.60;31.70;97296.84;5061697;28;20032;-30
2021/10/19 11:19:16;;;;;;;5.05;2.58;;;;;;;27.61;31.76;97294.19;5062140;28;20024;-27
2021/10/19 11:21:41;;;;;;;9.07;2.67;;;;;;;27.60;31.93;97283.69;5061895;28;20041;-30
2021/10/19 11:24:07;;;;;;;5.15;2.60;;;;;;;27.62;31.88;97281.88;5062702;28;20762;-27
2021/10/19 11:26:34;;;;;;;3.55;2.50;;;;;;;27.61;31.86;97278.38;5060909;28;20020;-30
2021/10/19 11:29:00;;;;;;;3.35;2.20;;;;;;;27.63;31.95;97280.94;5058989;28;20027;-31